createdAt,value
2023-02-13T00:00:52.843Z,25.08
2023-02-13T00:03:22.600Z,24.15
2023-02-13T00:05:50.369Z,24.30
2023-02-13T00:08:18.055Z,23.77
2023-02-13T00:10:45.809Z,25.70
2023-02-13T00:13:13.548Z,24.45
2023-02-13T00:15:41.288Z,25.15
2023-02-13T00:18:09.063Z,23.60
2023-02-13T00:20:38.161Z,25.33
2023-02-13T00:23:05.959Z,23.63
2023-02-13T00:25:33.771Z,24.67
2023-02-13T00:28:01.581Z,23.70
2023-02-13T00:30:29.429Z,25.50
2023-02-13T00:32:57.144Z,23.25
2023-02-13T00:35:24.814Z,24.90
2023-02-13T00:37:53.866Z,23.98
2023-02-13T00:40:21.944Z,26.33
2023-02-13T00:42:49.627Z,23.63
2023-02-13T00:45:17.335Z,23.65
2023-02-13T00:47:45.037Z,23.23
2023-02-13T00:50:12.770Z,23.83
2023-02-13T00:52:40.491Z,23.48
2023-02-13T00:55:09.883Z,23.00
2023-02-13T00:57:37.528Z,26.10
2023-02-13T01:00:06.080Z,24.27
2023-02-13T01:02:36.215Z,23.35
2023-02-13T01:05:04.246Z,22.83
2023-02-13T01:07:31.961Z,23.17
2023-02-13T01:09:59.726Z,23.13
2023-02-13T01:12:28.800Z,23.70
2023-02-13T01:14:56.468Z,23.20
2023-02-13T01:17:24.281Z,23.73
2023-02-13T01:19:52.059Z,25.58
2023-02-13T01:22:19.789Z,22.52
2023-02-13T01:24:47.516Z,26.73
2023-02-13T01:27:17.103Z,23.88
2023-02-13T01:29:46.300Z,24.92
2023-02-13T01:32:14.098Z,26.17
2023-02-13T01:34:41.890Z,24.92
2023-02-13T01:37:09.564Z,24.73
2023-02-13T01:39:37.305Z,24.23
2023-02-13T01:42:05.709Z,24.13
2023-02-13T01:44:50.765Z,26.63
2023-02-13T01:47:27.698Z,24.92
2023-02-13T01:50:03.796Z,24.05
2023-02-13T01:52:31.816Z,23.05
2023-02-13T01:54:59.527Z,24.75
2023-02-13T01:57:30.223Z,25.40
2023-02-13T02:00:03.706Z,24.55
2023-02-13T02:02:32.946Z,23.90
2023-02-13T02:05:00.826Z,24.90
2023-02-13T02:07:30.380Z,25.07
2023-02-13T02:10:00.888Z,25.80
2023-02-13T02:12:33.363Z,27.85
2023-02-13T02:15:03.110Z,26.45
2023-02-13T02:17:30.996Z,24.83
2023-02-13T02:20:05.857Z,25.08
2023-02-13T02:23:02.119Z,26.00
2023-02-13T02:25:46.881Z,25.33
2023-02-13T02:28:38.666Z,25.08
2023-02-13T02:31:54.616Z,25.60
2023-02-13T02:34:31.120Z,25.27
2023-02-13T02:37:09.348Z,28.42
2023-02-13T02:39:44.371Z,27.80
2023-02-13T02:42:19.876Z,25.95
2023-02-13T02:44:55.925Z,25.00
2023-02-13T02:47:44.315Z,24.33
2023-02-13T02:50:27.947Z,25.27
2023-02-13T02:53:09.873Z,27.25
2023-02-13T02:55:40.494Z,26.20
2023-02-13T03:01:47.341Z,27.25
2023-02-13T03:04:37.159Z,27.05
2023-02-13T03:07:08.299Z,25.95
2023-02-13T03:09:56.712Z,25.42
2023-02-13T03:12:43.267Z,26.63
2023-02-13T03:15:11.215Z,27.45
2023-02-13T03:17:56.585Z,27.40
2023-02-13T03:20:47.871Z,25.20
2023-02-13T03:23:18.957Z,27.20
2023-02-13T03:26:02.634Z,25.83
2023-02-13T03:28:54.771Z,25.55
2023-02-13T03:31:26.837Z,26.48
2023-02-13T03:33:59.473Z,28.25
2023-02-13T03:36:53.345Z,28.60
2023-02-13T03:39:25.305Z,27.88
2023-02-13T03:41:57.276Z,29.35
2023-02-13T03:44:28.829Z,26.70
2023-02-13T03:47:00.271Z,27.67
2023-02-13T03:49:48.809Z,26.95
2023-02-13T03:52:20.760Z,26.13
2023-02-13T03:55:09.893Z,25.77
2023-02-13T03:57:55.999Z,27.63
2023-02-13T04:00:23.893Z,26.98
2023-02-13T04:02:58.103Z,27.75
2023-02-13T04:05:27.336Z,27.98
2023-02-13T04:07:55.083Z,28.67
2023-02-13T04:10:25.730Z,29.48
2023-02-13T04:12:59.056Z,28.97
2023-02-13T04:15:30.005Z,28.73
2023-02-13T04:18:04.636Z,30.35
2023-02-13T04:20:33.081Z,27.45
2023-02-13T04:23:05.988Z,31.27
2023-02-13T04:25:35.386Z,28.20
2023-02-13T04:28:03.104Z,27.83
2023-02-13T04:30:30.958Z,28.42
2023-02-13T04:32:58.738Z,26.58
2023-02-13T04:35:27.114Z,27.65
2023-02-13T04:37:54.882Z,29.40
2023-02-13T04:40:22.563Z,28.20
2023-02-13T04:42:51.842Z,31.55
2023-02-13T04:45:19.678Z,29.13
2023-02-13T04:47:51.514Z,26.92
2023-02-13T04:50:19.345Z,28.88
2023-02-13T04:52:47.150Z,29.65
2023-02-13T04:55:15.455Z,29.53
2023-02-13T04:57:43.188Z,28.75
2023-02-13T05:00:13.389Z,30.10
2023-02-13T05:02:41.131Z,28.13
2023-02-13T05:05:09.139Z,28.17
2023-02-13T05:07:36.866Z,28.52
2023-02-13T05:10:05.340Z,30.65
2023-02-13T05:12:33.015Z,31.38
2023-02-13T05:15:00.882Z,30.10
2023-02-13T05:17:29.997Z,29.67
2023-02-13T05:19:59.115Z,28.73
2023-02-13T05:22:44.576Z,29.75
2023-02-13T05:25:12.274Z,28.58
2023-02-13T05:27:39.949Z,28.48
2023-02-13T05:30:08.737Z,29.85
2023-02-13T05:32:37.875Z,31.00
2023-02-13T05:35:06.012Z,33.15
2023-02-13T05:37:33.765Z,31.20
2023-02-13T05:40:01.513Z,28.75
2023-02-13T05:42:29.294Z,28.30
2023-02-13T05:44:57.027Z,31.52
2023-02-13T05:47:24.758Z,29.40
2023-02-13T05:49:53.876Z,30.45
2023-02-13T05:52:21.736Z,30.48
2023-02-13T05:54:49.419Z,29.25
2023-02-13T05:57:17.439Z,28.70
2023-02-13T05:59:45.327Z,32.70
2023-02-13T06:02:13.063Z,30.10
2023-02-13T06:04:41.390Z,29.35
2023-02-13T06:07:10.496Z,30.92
2023-02-13T06:09:38.180Z,29.58
2023-02-13T06:12:06.384Z,29.50
2023-02-13T06:14:34.132Z,29.17
2023-02-13T06:17:02.296Z,28.63
2023-02-13T06:19:30.003Z,34.20
2023-02-13T06:21:57.855Z,30.80
2023-02-13T06:24:27.001Z,30.85
2023-02-13T06:26:54.649Z,31.45
2023-02-13T06:29:22.317Z,30.50
2023-02-13T06:31:50.081Z,32.53
2023-02-13T06:34:17.795Z,31.77
2023-02-13T06:36:45.552Z,31.52
2023-02-13T06:39:13.320Z,30.98
2023-02-13T06:41:42.474Z,32.00
2023-02-13T06:44:10.333Z,32.58
2023-02-13T06:46:38.119Z,30.63
2023-02-13T06:49:05.848Z,32.97
2023-02-13T06:51:33.631Z,31.92
2023-02-13T06:54:01.334Z,30.48
2023-02-13T06:56:29.100Z,30.75
2023-02-13T06:58:58.254Z,31.05
2023-02-13T07:01:26.006Z,31.75
2023-02-13T07:03:53.715Z,32.67
2023-02-13T07:06:22.420Z,31.50
2023-02-13T07:08:51.479Z,32.58
2023-02-13T07:11:19.771Z,33.55
2023-02-13T07:13:47.584Z,37.10
2023-02-13T07:16:16.943Z,34.28
2023-02-13T07:18:44.812Z,33.75
2023-02-13T07:21:12.580Z,32.67
2023-02-13T07:23:40.297Z,33.80
2023-02-13T07:26:08.228Z,32.67
2023-02-13T07:28:35.992Z,33.42
2023-02-13T07:31:05.691Z,34.88
2023-02-13T07:33:36.222Z,36.73
2023-02-13T07:36:04.584Z,31.60
2023-02-13T07:38:32.810Z,31.02
2023-02-13T07:41:00.583Z,31.67
2023-02-13T07:43:28.589Z,33.33
2023-02-13T07:45:59.886Z,32.33
2023-02-13T07:48:28.511Z,32.78
2023-02-13T07:51:01.450Z,33.92
2023-02-13T07:53:29.190Z,31.33
2023-02-13T07:55:57.225Z,33.13
2023-02-13T07:58:25.125Z,31.58
2023-02-13T08:00:52.853Z,39.97
2023-02-13T08:03:20.552Z,44.00
2023-02-13T08:05:49.024Z,42.70
2023-02-13T08:08:18.429Z,61.80
2023-02-13T08:11:03.272Z,55.13
2023-02-13T08:13:31.178Z,48.00
2023-02-13T08:15:59.080Z,44.73
2023-02-13T08:18:26.927Z,45.80
2023-02-13T08:20:54.637Z,51.97
2023-02-13T08:23:23.818Z,48.70
2023-02-13T08:25:51.493Z,36.08
2023-02-13T08:28:19.283Z,34.42
2023-02-13T08:30:47.087Z,33.90
2023-02-13T08:33:14.718Z,33.53
2023-02-13T08:35:42.429Z,32.15
2023-02-13T08:38:10.568Z,31.13
2023-02-13T08:40:39.647Z,32.72
2023-02-13T08:43:08.511Z,31.15
2023-02-13T08:45:36.879Z,31.43
2023-02-13T08:48:05.139Z,31.25
2023-02-13T08:50:33.618Z,31.10
2023-02-13T08:53:02.294Z,33.53
2023-02-13T08:55:31.463Z,32.00
2023-02-13T08:58:02.683Z,31.75
2023-02-13T09:00:30.913Z,31.73
2023-02-13T09:03:02.162Z,31.50
2023-02-13T09:05:31.637Z,32.53
2023-02-13T09:08:01.279Z,34.83
2023-02-13T09:10:28.966Z,35.63
2023-02-13T09:12:56.781Z,32.80
2023-02-13T09:15:25.925Z,32.92
2023-02-13T09:17:53.756Z,32.92
2023-02-13T09:20:21.518Z,33.03
2023-02-13T09:22:49.201Z,34.13
2023-02-13T09:25:17.015Z,33.53
2023-02-13T09:27:44.702Z,33.97
2023-02-13T09:30:15.281Z,33.28
2023-02-13T09:32:44.600Z,33.97
2023-02-13T09:35:14.961Z,34.67
2023-02-13T09:37:42.697Z,34.33
2023-02-13T09:40:18.532Z,33.42
2023-02-13T09:42:47.244Z,34.40
2023-02-13T09:45:15.405Z,36.65
2023-02-13T09:47:45.291Z,35.25
2023-02-13T09:50:16.262Z,35.97
2023-02-13T09:52:45.867Z,35.08
2023-02-13T09:55:18.674Z,36.53
2023-02-13T09:57:53.145Z,34.83
2023-02-13T10:00:23.269Z,35.03
2023-02-13T10:03:23.510Z,36.50
2023-02-13T10:05:59.314Z,37.78
2023-02-13T10:08:36.271Z,37.25
2023-02-13T10:11:08.321Z,36.88
2023-02-13T10:13:53.296Z,39.42
2023-02-13T10:16:23.720Z,42.30
2023-02-13T10:18:55.791Z,34.23
2023-02-13T10:21:26.001Z,36.67
2023-02-13T10:23:59.190Z,35.03
2023-02-13T10:26:42.603Z,34.25
2023-02-13T10:29:34.046Z,34.70
2023-02-13T10:32:04.891Z,36.13
2023-02-13T10:34:40.018Z,35.63
2023-02-13T10:37:13.786Z,58.63
2023-02-13T10:39:42.741Z,39.70
2023-02-13T10:42:20.202Z,34.60
2023-02-13T10:44:56.724Z,30.60
2023-02-13T10:47:38.538Z,33.63
2023-02-13T10:50:17.090Z,38.20
2023-02-13T10:52:51.260Z,34.00
2023-02-13T10:55:36.200Z,31.97
2023-02-13T10:58:09.481Z,32.35
2023-02-13T11:00:43.068Z,32.20
2023-02-13T11:03:19.026Z,29.67
2023-02-13T11:05:48.196Z,30.98
2023-02-13T11:08:20.029Z,30.52
2023-02-13T11:10:47.727Z,33.05
2023-02-13T11:13:20.494Z,32.28
2023-02-13T11:16:00.292Z,31.88
2023-02-13T11:18:30.343Z,31.67
2023-02-13T11:21:07.883Z,31.67
2023-02-13T11:23:39.034Z,31.73
2023-02-13T11:26:09.907Z,29.55
2023-02-13T11:28:49.369Z,30.20
2023-02-13T11:31:24.672Z,28.85
2023-02-13T11:33:52.676Z,28.98
2023-02-13T11:36:27.121Z,27.92
2023-02-13T11:39:02.789Z,28.65
2023-02-13T11:41:33.136Z,30.42
2023-02-13T11:44:02.208Z,30.48
2023-02-13T11:46:31.536Z,30.23
2023-02-13T11:49:01.258Z,31.77
2023-02-13T11:51:41.613Z,29.38
2023-02-13T11:54:27.062Z,29.60
2023-02-13T11:57:05.148Z,29.07
2023-02-13T11:59:40.180Z,30.67
2023-02-13T12:02:16.262Z,33.30
2023-02-13T12:04:44.034Z,33.85
2023-02-13T12:07:18.775Z,37.83
2023-02-13T12:09:47.595Z,39.13
2023-02-13T12:12:19.134Z,37.47
2023-02-13T12:14:47.524Z,34.50
2023-02-13T12:17:30.927Z,36.80
2023-02-13T12:19:59.831Z,33.08
2023-02-13T12:22:41.566Z,36.17
2023-02-13T12:25:20.474Z,40.42
2023-02-13T12:27:54.257Z,50.50
2023-02-13T12:30:55.596Z,37.80
2023-02-13T12:33:38.344Z,40.67
2023-02-13T12:36:11.558Z,38.47
2023-02-13T12:38:54.372Z,40.07
2023-02-13T12:41:23.853Z,43.20
2023-02-13T12:44:14.138Z,39.07
2023-02-13T12:46:52.652Z,36.33
2023-02-13T12:49:42.897Z,37.92
2023-02-13T12:52:22.338Z,40.15
2023-02-13T12:55:00.380Z,35.85
2023-02-13T12:57:38.636Z,36.85
2023-02-13T13:00:23.655Z,37.85
2023-02-13T13:03:13.800Z,37.30
2023-02-13T13:06:09.044Z,35.38
2023-02-13T13:08:58.242Z,35.65
2023-02-13T13:11:41.227Z,34.05
2023-02-13T13:14:13.880Z,34.35
2023-02-13T13:16:46.795Z,32.08
2023-02-13T13:19:21.481Z,29.92
2023-02-13T13:21:54.422Z,30.47
2023-02-13T13:24:39.194Z,27.98
2023-02-13T13:27:20.640Z,23.13
2023-02-13T13:29:53.155Z,23.58
2023-02-13T13:32:22.603Z,22.83
2023-02-13T13:34:50.295Z,23.05
2023-02-13T13:37:23.291Z,22.87
2023-02-13T13:39:53.982Z,21.73
2023-02-13T13:42:28.205Z,21.33
2023-02-13T13:45:19.355Z,19.92
2023-02-13T13:47:53.796Z,20.90
2023-02-13T13:50:24.142Z,20.83
2023-02-13T13:53:08.971Z,21.25
2023-02-13T13:56:03.438Z,23.63
2023-02-13T13:58:39.280Z,20.92
2023-02-13T14:01:18.991Z,19.45
2023-02-13T14:03:47.193Z,20.57
2023-02-13T14:06:16.398Z,20.03
2023-02-13T14:09:07.270Z,19.75
2023-02-13T14:11:46.546Z,19.02
2023-02-13T14:14:52.435Z,23.52
2023-02-13T14:17:53.797Z,19.25
2023-02-13T14:20:37.671Z,19.05
2023-02-13T14:23:29.902Z,18.80
2023-02-13T14:26:18.763Z,18.40
2023-02-13T14:28:58.535Z,19.50
2023-02-13T14:31:28.370Z,19.15
2023-02-13T14:33:59.651Z,19.23
2023-02-13T14:36:33.311Z,18.55
2023-02-13T14:39:03.149Z,19.13
2023-02-13T14:41:57.267Z,17.95
2023-02-13T14:44:26.915Z,19.58
2023-02-13T14:46:55.465Z,18.05
2023-02-13T14:49:25.929Z,17.80
2023-02-13T14:51:55.554Z,19.05
2023-02-13T14:54:28.726Z,18.50
2023-02-13T14:57:02.043Z,18.85
2023-02-13T14:59:35.238Z,19.20
2023-02-13T15:02:09.762Z,19.92
2023-02-13T15:04:42.457Z,20.20
2023-02-13T15:07:15.914Z,25.95
2023-02-13T15:09:49.752Z,22.40
2023-02-13T15:12:28.876Z,22.83
2023-02-13T15:14:56.737Z,21.13
2023-02-13T15:17:27.109Z,21.02
2023-02-13T15:19:59.714Z,21.13
2023-02-13T15:22:32.345Z,20.58
2023-02-13T15:25:00.434Z,21.88
2023-02-13T15:27:29.930Z,23.48
2023-02-13T15:30:01.254Z,23.20
2023-02-13T15:32:32.366Z,26.00
2023-02-13T15:35:01.692Z,24.00
2023-02-13T15:37:31.773Z,33.22
2023-02-13T15:40:15.896Z,29.33
2023-02-13T15:42:43.691Z,27.95
2023-02-13T15:45:15.745Z,27.65
2023-02-13T15:47:44.148Z,25.98
2023-02-13T15:50:23.551Z,25.80
2023-02-13T15:52:52.182Z,26.27
2023-02-13T15:55:22.227Z,24.92
2023-02-13T15:57:51.625Z,27.17
2023-02-13T16:00:25.083Z,26.57
2023-02-13T16:02:54.402Z,26.92
2023-02-13T16:05:38.539Z,26.77
2023-02-13T16:08:27.732Z,27.55
2023-02-13T16:11:11.498Z,25.95
2023-02-13T16:13:39.259Z,26.67
2023-02-13T16:16:11.041Z,27.55
2023-02-13T16:18:38.748Z,25.95
2023-02-13T16:21:09.146Z,29.20
2023-02-13T16:23:36.904Z,28.45
2023-02-13T16:26:06.812Z,28.77
2023-02-13T16:28:35.192Z,27.98
2023-02-13T16:31:04.566Z,29.00
2023-02-13T16:33:33.125Z,26.75
2023-02-13T16:36:01.983Z,24.42
2023-02-13T16:38:33.980Z,25.83
2023-02-13T16:41:03.148Z,21.38
2023-02-13T16:44:42.956Z,25.85
2023-02-13T16:47:19.307Z,24.97
2023-02-13T16:49:52.774Z,25.63
2023-02-13T16:52:24.223Z,25.30
2023-02-13T16:54:54.755Z,26.73
2023-02-13T16:57:25.670Z,27.08
2023-02-13T17:00:08.544Z,28.52
2023-02-13T17:02:38.456Z,31.92
2023-02-13T17:05:22.240Z,35.53
2023-02-13T17:07:51.954Z,35.83
2023-02-13T17:10:21.837Z,35.75
2023-02-13T17:12:50.430Z,34.63
2023-02-13T17:15:21.728Z,31.00
2023-02-13T17:17:50.597Z,29.98
2023-02-13T17:20:22.163Z,27.57
2023-02-13T17:22:51.833Z,27.63
2023-02-13T17:25:22.576Z,27.47
2023-02-13T17:30:24.916Z,26.05
2023-02-13T17:32:57.055Z,25.92
2023-02-13T17:35:24.708Z,25.45
2023-02-13T17:37:52.414Z,26.15
2023-02-13T17:40:22.258Z,27.58
2023-02-13T17:42:53.321Z,28.13
2023-02-13T17:45:24.928Z,28.38
2023-02-13T17:47:53.145Z,28.93
2023-02-13T17:50:21.572Z,28.10
2023-02-13T17:52:49.864Z,27.65
2023-02-13T17:55:18.943Z,27.25
2023-02-13T17:57:46.901Z,27.45
2023-02-13T18:00:15.738Z,27.65
2023-02-13T18:02:45.393Z,29.42
2023-02-13T18:05:13.124Z,28.85
2023-02-13T18:07:42.499Z,28.45
2023-02-13T18:10:13.210Z,29.45
2023-02-13T18:12:42.257Z,28.25
2023-02-13T18:15:11.019Z,26.30
2023-02-13T18:17:39.773Z,27.33
2023-02-13T18:20:12.192Z,27.95
2023-02-13T18:22:39.996Z,27.95
2023-02-13T18:25:08.875Z,30.60
2023-02-13T18:27:36.728Z,31.50
2023-02-13T18:30:04.905Z,29.55
2023-02-13T18:32:32.642Z,30.93
2023-02-13T18:35:00.388Z,31.52
2023-02-13T18:37:30.070Z,31.42
2023-02-13T18:39:58.222Z,33.75
2023-02-13T18:42:26.007Z,43.17
2023-02-13T18:44:54.050Z,39.67
2023-02-13T18:47:21.811Z,37.38
2023-02-13T18:49:49.505Z,39.95
2023-02-13T18:52:17.347Z,35.03
2023-02-13T18:54:46.508Z,35.20
2023-02-13T18:57:14.218Z,32.90
2023-02-13T18:59:41.911Z,31.17
2023-02-13T19:02:10.430Z,32.58
2023-02-13T19:04:38.284Z,34.80
2023-02-13T19:07:06.155Z,35.93
2023-02-13T19:09:35.613Z,34.10
2023-02-13T19:12:04.948Z,33.00
2023-02-13T19:14:32.741Z,32.22
2023-02-13T19:17:00.447Z,32.10
2023-02-13T19:19:28.193Z,30.60
2023-02-13T19:21:55.870Z,30.35
2023-02-13T19:24:23.599Z,29.37
2023-02-13T19:26:51.352Z,30.13
2023-02-13T19:29:20.504Z,29.85
2023-02-13T19:31:48.359Z,30.20
2023-02-13T19:34:16.501Z,29.83
2023-02-13T19:36:44.139Z,30.95
2023-02-13T19:39:12.290Z,32.10
2023-02-13T19:41:40.896Z,29.80
2023-02-13T19:44:09.106Z,30.35
2023-02-13T19:46:38.965Z,30.25
2023-02-13T19:49:07.336Z,30.27
2023-02-13T19:51:37.424Z,29.52
2023-02-13T19:54:07.059Z,31.02
2023-02-13T19:56:37.400Z,29.73
2023-02-13T19:59:06.470Z,29.92
2023-02-13T20:01:34.191Z,30.85
2023-02-13T20:04:03.412Z,32.97
2023-02-13T20:06:34.934Z,33.33
2023-02-13T20:09:05.722Z,33.03
2023-02-13T20:11:33.625Z,34.60
2023-02-13T20:14:01.812Z,35.22
2023-02-13T20:16:32.929Z,32.72
2023-02-13T20:19:03.623Z,34.10
2023-02-13T20:21:33.078Z,33.63
2023-02-13T20:24:02.824Z,34.20
2023-02-13T20:26:30.665Z,33.07
2023-02-13T20:28:59.661Z,33.55
2023-02-13T20:31:29.111Z,31.65
2023-02-13T20:33:57.117Z,30.95
2023-02-13T20:36:28.025Z,32.13
2023-02-13T20:38:58.316Z,29.33
2023-02-13T20:41:27.226Z,28.08
2023-02-13T20:43:58.805Z,28.90
2023-02-13T20:46:27.029Z,29.88
2023-02-13T20:48:54.848Z,31.40
2023-02-13T20:51:22.688Z,32.10
2023-02-13T20:53:51.976Z,29.33
2023-02-13T20:56:21.452Z,30.88
2023-02-13T20:58:50.299Z,29.93
2023-02-13T21:01:20.104Z,31.02
2023-02-13T21:03:53.423Z,30.25
2023-02-13T21:06:21.800Z,29.63
2023-02-13T21:08:51.430Z,30.10
2023-02-13T21:11:19.555Z,32.38
2023-02-13T21:13:47.706Z,32.78
2023-02-13T21:16:17.830Z,32.43
2023-02-13T21:18:48.862Z,32.28
2023-02-13T21:21:16.981Z,31.92
2023-02-13T21:23:44.839Z,30.90
2023-02-13T21:26:15.782Z,30.67
2023-02-13T21:28:45.877Z,31.50
2023-02-13T21:31:15.609Z,30.05
2023-02-13T21:33:43.357Z,28.10
2023-02-13T21:36:12.704Z,28.40
2023-02-13T21:38:41.490Z,28.45
2023-02-13T21:41:10.623Z,29.73
2023-02-13T21:43:40.356Z,26.95
2023-02-13T21:46:09.630Z,26.83
2023-02-13T21:48:37.478Z,26.98
2023-02-13T21:51:08.820Z,27.40
2023-02-13T21:53:36.649Z,28.85
2023-02-13T21:56:04.485Z,28.15
2023-02-13T21:58:33.813Z,29.90
2023-02-13T22:01:03.280Z,27.63
2023-02-13T22:03:31.175Z,26.95
2023-02-13T22:05:58.899Z,26.75
2023-02-13T22:08:26.666Z,26.38
2023-02-13T22:10:55.192Z,26.48
2023-02-13T22:13:22.926Z,26.17
2023-02-13T22:15:59.837Z,26.57
2023-02-13T22:18:31.589Z,26.38
2023-02-13T22:20:59.769Z,28.50
2023-02-13T22:23:27.678Z,26.30
2023-02-13T22:25:55.323Z,25.13
2023-02-13T22:28:23.149Z,25.75
2023-02-13T22:30:50.927Z,24.67
2023-02-13T22:33:18.690Z,26.33
2023-02-13T22:35:50.210Z,25.55
2023-02-13T22:38:18.396Z,26.77
2023-02-13T22:40:46.039Z,25.40
2023-02-13T22:43:13.720Z,26.50
2023-02-13T22:45:41.416Z,26.08
2023-02-13T22:48:09.095Z,24.48
2023-02-13T22:50:36.802Z,24.80
2023-02-13T22:53:05.890Z,25.23
2023-02-13T22:55:34.593Z,25.02
2023-02-13T22:58:02.361Z,25.17
2023-02-13T23:00:30.076Z,25.55
2023-02-13T23:02:57.806Z,24.95
2023-02-13T23:05:25.553Z,25.13
2023-02-13T23:07:53.281Z,25.75
2023-02-13T23:10:25.803Z,26.65
2023-02-13T23:12:52.529Z,25.93
2023-02-13T23:15:20.362Z,27.30
2023-02-13T23:18:05.713Z,27.60
2023-02-13T23:20:33.434Z,27.50
2023-02-13T23:23:02.249Z,29.67
2023-02-13T23:25:32.223Z,34.60
2023-02-13T23:27:59.994Z,30.40
2023-02-13T23:30:28.621Z,29.38
2023-02-13T23:32:56.461Z,28.88
2023-02-13T23:35:24.487Z,29.10
2023-02-13T23:37:52.152Z,27.90
2023-02-13T23:40:20.569Z,26.55
2023-02-13T23:42:49.671Z,27.48
2023-02-13T23:45:17.680Z,26.45
2023-02-13T23:47:45.498Z,25.52
2023-02-13T23:50:13.239Z,24.67
2023-02-13T23:52:40.878Z,24.70
2023-02-13T23:55:08.993Z,24.98
2023-02-13T23:57:36.687Z,24.38
